Time,TemperatureF,DewpointF,PressureIn,WindDirection,WindDirectionDegrees,WindSpeedMPH,WindSpeedGustMPH,Humidity,HourlyPrecipIn,Conditions,Clouds,dailyrainin,SoftwareType,DateUTC
2013-01-08 00:03:00,34.7,24.4,30.45,SSE,158,0.0,0.0,66,0.00,,,0.00,WUHU216HW,2013-01-08 05:03:00,
2013-01-08 00:08:00,34.8,24.9,30.45,SE,135,0.0,0.0,66,0.00,,,0.00,WUHU216HW,2013-01-08 05:08:00,
2013-01-08 00:13:00,34.8,24.9,30.44,ESE,113,0.0,0.0,67,0.00,,,0.00,WUHU216HW,2013-01-08 05:13:00,
2013-01-08 00:18:00,35.2,25.3,30.45,ESE,113,0.0,0.0,67,0.00,,,0.00,WUHU216HW,2013-01-08 05:18:00,
2013-01-08 00:23:00,34.8,24.9,30.44,ESE,113,0.0,0.0,66,0.00,,,0.00,WUHU216HW,2013-01-08 05:23:00,
2013-01-08 00:28:00,34.8,24.9,30.44,South,180,0.0,0.0,67,0.00,,,0.00,WUHU216HW,2013-01-08 05:28:00,
2013-01-08 00:33:00,34.8,24.6,30.44,South,180,0.0,0.0,66,0.00,,,0.00,WUHU216HW,2013-01-08 05:33:00,
2013-01-08 00:38:00,34.7,24.4,30.44,SSE,158,0.0,0.0,66,0.00,,,0.00,WUHU216HW,2013-01-08 05:38:00,
2013-01-08 00:43:00,34.3,24.0,30.44,SSE,158,0.0,0.0,66,0.00,,,0.00,WUHU216HW,2013-01-08 05:43:00,
2013-01-08 00:48:00,34.3,24.0,30.44,SSE,158,0.0,0.0,66,0.00,,,0.00,WUHU216HW,2013-01-08 05:48:00,
2013-01-08 00:53:00,34.1,23.9,30.44,SSE,158,0.0,0.0,66,0.00,,,0.00,WUHU216HW,2013-01-08 05:53:00,
2013-01-08 00:58:00,33.8,23.5,30.44,SSE,158,0.0,0.0,66,0.00,,,0.00,WUHU216HW,2013-01-08 05:58:00,
2013-01-08 01:03:00,33.6,23.3,30.44,SSE,158,0.0,0.0,66,0.00,,,0.00,WUHU216HW,2013-01-08 06:03:00,
2013-01-08 01:08:00,33.4,23.2,30.44,SSE,158,0.0,0.0,66,0.00,,,0.00,WUHU216HW,2013-01-08 06:08:00,
2013-01-08 01:13:00,33.0,23.2,30.43,SE,135,0.0,0.0,67,0.00,,,0.00,WUHU216HW,2013-01-08 06:13:00,
2013-01-08 01:18:00,32.9,23.0,30.43,SE,135,0.0,0.0,67,0.00,,,0.00,WUHU216HW,2013-01-08 06:18:00,
2013-01-08 01:23:00,32.7,22.9,30.43,SE,135,0.0,0.0,67,0.00,,,0.00,WUHU216HW,2013-01-08 06:23:00,
2013-01-08 01:28:00,32.5,22.7,30.43,SE,135,0.0,0.0,67,0.00,,,0.00,WUHU216HW,2013-01-08 06:28:00,
2013-01-08 01:33:00,32.3,22.6,30.44,SE,135,0.0,0.0,67,0.00,,,0.00,WUHU216HW,2013-01-08 06:33:00,
2013-01-08 01:38:00,32.1,22.4,30.44,SE,135,0.0,0.0,67,0.00,,,0.00,WUHU216HW,2013-01-08 06:38:00,
2013-01-08 01:43:00,31.8,22.4,30.44,SE,135,0.0,0.0,68,0.00,,,0.00,WUHU216HW,2013-01-08 06:43:00,
2013-01-08 01:48:00,31.6,22.2,30.44,SE,135,0.0,0.0,68,0.00,,,0.00,WUHU216HW,2013-01-08 06:48:00,
2013-01-08 01:53:00,31.6,22.6,30.44,SE,135,0.0,0.0,69,0.00,,,0.00,WUHU216HW,2013-01-08 06:53:00,
2013-01-08 01:58:00,31.2,22.2,30.44,SE,135,0.0,0.0,69,0.00,,,0.00,WUHU216HW,2013-01-08 06:58:00,
2013-01-08 02:03:00,31.2,22.2,30.44,SE,135,0.0,0.0,69,0.00,,,0.00,WUHU216HW,2013-01-08 07:03:00,
2013-01-08 02:08:00,31.4,22.8,30.44,SE,135,0.0,0.0,70,0.00,,,0.00,WUHU216HW,2013-01-08 07:08:00,
2013-01-08 02:13:00,31.6,23.0,30.44,SE,135,0.0,0.0,70,0.00,,,0.00,WUHU216HW,2013-01-08 07:13:00,
2013-01-08 02:18:00,31.6,23.0,30.44,SE,135,0.0,0.0,70,0.00,,,0.00,WUHU216HW,2013-01-08 07:18:00,
2013-01-08 02:23:00,31.6,23.0,30.44,SE,135,0.0,0.0,70,0.00,,,0.00,WUHU216HW,2013-01-08 07:23:00,
2013-01-08 02:28:00,31.6,23.0,30.44,SE,135,0.0,0.0,70,0.00,,,0.00,WUHU216HW,2013-01-08 07:28:00,
2013-01-08 02:33:00,31.6,23.0,30.44,SE,135,0.0,0.0,70,0.00,,,0.00,WUHU216HW,2013-01-08 07:33:00,
2013-01-08 02:38:00,31.2,22.6,30.44,SE,135,0.0,0.0,70,0.00,,,0.00,WUHU216HW,2013-01-08 07:38:00,
2013-01-08 02:43:00,31.2,22.6,30.44,SE,135,0.0,0.0,70,0.00,,,0.00,WUHU216HW,2013-01-08 07:43:00,
2013-01-08 02:49:00,31.1,22.4,30.44,SE,135,0.0,0.0,70,0.00,,,0.00,WUHU216HW,2013-01-08 07:49:00,
2013-01-08 02:54:00,30.9,22.6,30.44,SE,135,0.0,0.0,71,0.00,,,0.00,WUHU216HW,2013-01-08 07:54:00,
2013-01-08 02:59:00,30.7,22.4,30.44,SE,135,0.0,0.0,71,0.00,,,0.00,WUHU216HW,2013-01-08 07:59:00,
2013-01-08 03:04:00,30.7,22.4,30.45,SE,135,0.0,0.0,71,0.00,,,0.00,WUHU216HW,2013-01-08 08:04:00,
2013-01-08 03:09:00,30.3,22.0,30.45,SE,135,0.0,0.0,71,0.00,,,0.00,WUHU216HW,2013-01-08 08:09:00,
2013-01-08 03:14:00,30.2,21.8,30.44,SE,135,0.0,0.0,71,0.00,,,0.00,WUHU216HW,2013-01-08 08:14:00,
2013-01-08 03:19:00,30.0,21.7,30.45,SE,135,0.0,0.0,71,0.00,,,0.00,WUHU216HW,2013-01-08 08:19:00,
2013-01-08 03:24:00,29.8,21.5,30.45,SE,135,0.0,0.0,71,0.00,,,0.00,WUHU216HW,2013-01-08 08:24:00,
2013-01-08 03:29:00,29.8,21.8,30.44,SE,135,0.0,0.0,72,0.00,,,0.00,WUHU216HW,2013-01-08 08:29:00,
2013-01-08 03:34:00,29.6,21.7,30.45,SE,135,0.0,0.0,72,0.00,,,0.00,WUHU216HW,2013-01-08 08:34:00,
2013-01-08 03:39:00,29.6,21.7,30.44,SE,135,0.0,0.0,72,0.00,,,0.00,WUHU216HW,2013-01-08 08:39:00,
2013-01-08 03:44:00,29.4,21.5,30.44,SE,135,0.0,0.0,72,0.00,,,0.00,WUHU216HW,2013-01-08 08:44:00,
2013-01-08 03:49:00,29.4,21.5,30.44,SE,135,0.0,0.0,72,0.00,,,0.00,WUHU216HW,2013-01-08 08:49:00,
2013-01-08 03:54:00,29.4,21.8,30.44,SE,135,0.0,0.0,73,0.00,,,0.00,WUHU216HW,2013-01-08 08:54:00,
2013-01-08 03:59:00,29.6,22.0,30.44,SE,135,0.0,0.0,73,0.00,,,0.00,WUHU216HW,2013-01-08 08:59:00,
2013-01-08 04:04:00,29.8,22.1,30.43,SE,135,0.0,0.0,73,0.00,,,0.00,WUHU216HW,2013-01-08 09:04:00,
2013-01-08 04:09:00,29.8,22.1,30.43,SE,135,0.0,0.0,73,0.00,,,0.00,WUHU216HW,2013-01-08 09:09:00,
2013-01-08 04:14:00,29.8,22.1,30.43,SE,135,0.0,0.0,73,0.00,,,0.00,WUHU216HW,2013-01-08 09:14:00,
2013-01-08 04:19:00,29.8,22.5,30.43,SE,135,0.0,0.0,74,0.00,,,0.00,WUHU216HW,2013-01-08 09:19:00,
2013-01-08 04:24:00,29.8,22.5,30.43,SE,135,0.0,0.0,74,0.00,,,0.00,WUHU216HW,2013-01-08 09:24:00,
2013-01-08 04:29:00,29.8,22.5,30.43,SE,135,0.0,0.0,74,0.00,,,0.00,WUHU216HW,2013-01-08 09:29:00,
2013-01-08 04:34:00,29.8,22.5,30.43,SE,135,0.0,0.0,74,0.00,,,0.00,WUHU216HW,2013-01-08 09:34:00,
2013-01-08 04:39:00,29.6,22.3,30.43,SE,135,0.0,0.0,74,0.00,,,0.00,WUHU216HW,2013-01-08 09:39:00,
2013-01-08 04:44:00,29.4,22.1,30.43,SE,135,0.0,0.0,74,0.00,,,0.00,WUHU216HW,2013-01-08 09:44:00,
2013-01-08 04:49:00,29.4,22.1,30.42,SE,135,0.0,0.0,74,0.00,,,0.00,WUHU216HW,2013-01-08 09:49:00,
2013-01-08 04:54:00,29.4,22.4,30.42,ESE,113,0.0,0.0,75,0.00,,,0.00,WUHU216HW,2013-01-08 09:54:00,
2013-01-08 04:59:00,29.4,22.4,30.42,ESE,113,0.0,0.0,75,0.00,,,0.00,WUHU216HW,2013-01-08 09:59:00,
2013-01-08 05:04:00,29.4,22.4,30.42,ESE,113,0.0,0.0,75,0.00,,,0.00,WUHU216HW,2013-01-08 10:04:00,
2013-01-08 05:09:00,29.1,22.4,30.42,ESE,113,0.0,0.0,76,0.00,,,0.00,WUHU216HW,2013-01-08 10:09:00,
2013-01-08 05:14:00,29.1,22.4,30.42,ESE,113,0.0,0.0,76,0.00,,,0.00,WUHU216HW,2013-01-08 10:14:00,
2013-01-08 05:19:00,28.9,22.2,30.42,ESE,113,0.0,0.0,76,0.00,,,0.00,WUHU216HW,2013-01-08 10:19:00,
2013-01-08 05:24:00,28.5,21.9,30.42,ESE,113,0.0,0.0,76,0.00,,,0.00,WUHU216HW,2013-01-08 10:24:00,
2013-01-08 05:29:00,28.4,21.7,30.42,ESE,113,0.0,0.0,76,0.00,,,0.00,WUHU216HW,2013-01-08 10:29:00,
2013-01-08 05:34:00,28.2,21.9,30.43,ESE,113,0.0,0.0,77,0.00,,,0.00,WUHU216HW,2013-01-08 10:34:00,
2013-01-08 05:39:00,28.0,21.7,30.44,ESE,113,0.0,0.0,77,0.00,,,0.00,WUHU216HW,2013-01-08 10:39:00,
2013-01-08 05:44:00,28.0,21.4,30.44,ESE,113,0.0,0.0,76,0.00,,,0.00,WUHU216HW,2013-01-08 10:44:00,
2013-01-08 05:49:00,27.6,21.3,30.44,ESE,113,0.0,0.0,77,0.00,,,0.00,WUHU216HW,2013-01-08 10:49:00,
2013-01-08 05:54:00,27.6,21.3,30.44,ESE,113,0.0,0.0,77,0.00,,,0.00,WUHU216HW,2013-01-08 10:54:00,
2013-01-08 05:59:00,27.5,20.8,30.44,ESE,113,0.0,0.0,76,0.00,,,0.00,WUHU216HW,2013-01-08 10:59:00,
2013-01-08 06:04:00,27.3,20.6,30.44,ESE,113,0.0,0.0,76,0.00,,,0.00,WUHU216HW,2013-01-08 11:04:00,
2013-01-08 06:09:00,27.3,20.5,30.44,ESE,113,0.0,0.0,76,0.00,,,0.00,WUHU216HW,2013-01-08 11:09:00,
2013-01-08 06:14:00,27.1,20.5,30.44,ESE,113,0.0,0.0,76,0.00,,,0.00,WUHU216HW,2013-01-08 11:14:00,
2013-01-08 06:19:00,27.1,20.8,30.45,ESE,113,0.0,0.0,77,0.00,,,0.00,WUHU216HW,2013-01-08 11:19:00,
2013-01-08 06:24:00,26.9,20.6,30.45,ESE,113,0.0,0.0,77,0.00,,,0.00,WUHU216HW,2013-01-08 11:24:00,
2013-01-08 06:29:00,26.7,20.4,30.45,ESE,113,0.0,0.0,77,0.00,,,0.00,WUHU216HW,2013-01-08 11:29:00,
2013-01-08 06:34:00,26.6,19.9,30.45,ESE,113,0.0,0.0,76,0.00,,,0.00,WUHU216HW,2013-01-08 11:34:00,
2013-01-08 06:39:00,26.4,20.1,30.44,ESE,113,0.0,0.0,77,0.00,,,0.00,WUHU216HW,2013-01-08 11:39:00,
2013-01-08 06:44:00,26.4,20.1,30.44,ESE,113,0.0,0.0,77,0.00,,,0.00,WUHU216HW,2013-01-08 11:44:00,
2013-01-08 06:49:00,26.4,20.1,30.45,ESE,113,0.0,0.0,77,0.00,,,0.00,WUHU216HW,2013-01-08 11:49:00,
2013-01-08 06:54:00,26.4,20.1,30.45,ESE,113,0.0,0.0,77,0.00,,,0.00,WUHU216HW,2013-01-08 11:54:00,
2013-01-08 06:59:00,26.2,19.9,30.44,ESE,113,0.0,0.0,77,0.00,,,0.00,WUHU216HW,2013-01-08 11:59:00,
2013-01-08 07:04:00,26.4,20.1,30.44,ESE,113,0.0,0.0,77,0.00,,,0.00,WUHU216HW,2013-01-08 12:04:00,
2013-01-08 07:09:00,26.4,20.1,30.44,ESE,113,0.0,0.0,77,0.00,,,0.00,WUHU216HW,2013-01-08 12:09:00,
2013-01-08 07:14:00,26.4,20.4,30.44,ESE,113,0.0,0.0,78,0.00,,,0.00,WUHU216HW,2013-01-08 12:14:00,
2013-01-08 07:19:00,26.4,20.4,30.45,ESE,113,0.0,0.0,78,0.00,,,0.00,WUHU216HW,2013-01-08 12:19:00,
2013-01-08 07:24:00,26.4,20.4,30.45,ESE,113,0.0,0.0,78,0.00,,,0.00,WUHU216HW,2013-01-08 12:24:00,
2013-01-08 07:29:00,26.4,20.7,30.45,ESE,113,0.0,0.0,79,0.00,,,0.00,WUHU216HW,2013-01-08 12:29:00,
2013-01-08 07:34:00,26.4,20.7,30.45,ESE,113,0.0,0.0,79,0.00,,,0.00,WUHU216HW,2013-01-08 12:34:00,
2013-01-08 07:39:00,26.4,20.7,30.46,ESE,113,0.0,0.0,79,0.00,,,0.00,WUHU216HW,2013-01-08 12:39:00,
2013-01-08 07:44:00,26.6,20.8,30.46,ESE,113,0.0,0.0,79,0.00,,,0.00,WUHU216HW,2013-01-08 12:44:00,
2013-01-08 07:49:00,26.7,21.0,30.46,ESE,113,0.0,0.0,79,0.00,,,0.00,WUHU216HW,2013-01-08 12:49:00,
2013-01-08 07:54:00,26.7,21.0,30.47,ESE,113,0.0,0.0,79,0.00,,,0.00,WUHU216HW,2013-01-08 12:54:00,
2013-01-08 07:59:00,26.7,21.0,30.47,ESE,113,0.0,0.0,79,0.00,,,0.00,WUHU216HW,2013-01-08 12:59:00,
2013-01-08 08:04:00,27.1,21.4,30.46,SE,135,0.0,0.0,79,0.00,,,0.00,WUHU216HW,2013-01-08 13:04:00,
2013-01-08 08:09:00,27.3,21.6,30.47,SE,135,0.0,0.0,79,0.00,,,0.00,WUHU216HW,2013-01-08 13:09:00,
2013-01-08 08:14:00,27.5,21.7,30.49,SE,135,0.0,0.0,79,0.00,,,0.00,WUHU216HW,2013-01-08 13:14:00,
2013-01-08 08:20:00,27.6,21.9,30.48,SE,135,0.0,0.0,79,0.00,,,0.00,WUHU216HW,2013-01-08 13:20:00,
2013-01-08 08:25:00,28.0,22.6,30.49,SE,135,0.0,0.0,80,0.00,,,0.00,WUHU216HW,2013-01-08 13:25:00,
2013-01-08 08:30:00,28.2,22.8,30.48,SE,135,0.0,0.0,80,0.00,,,0.00,WUHU216HW,2013-01-08 13:30:00,
2013-01-08 08:35:00,28.5,23.1,30.49,SSE,158,0.0,0.0,80,0.00,,,0.00,WUHU216HW,2013-01-08 13:35:00,
2013-01-08 08:40:00,28.9,23.5,30.48,SSE,158,0.0,0.0,80,0.00,,,0.00,WUHU216HW,2013-01-08 13:40:00,
2013-01-08 08:45:00,29.1,23.7,30.48,SE,135,0.0,0.0,80,0.00,,,0.00,WUHU216HW,2013-01-08 13:45:00,
2013-01-08 08:50:00,29.8,24.4,30.48,ESE,113,0.0,0.0,80,0.00,,,0.00,WUHU216HW,2013-01-08 13:50:00,
2013-01-08 08:57:00,30.0,24.9,30.48,SE,135,0.0,0.0,81,0.00,,,0.00,WUHU216HW,2013-01-08 13:57:00,
2013-01-08 09:07:00,30.7,25.6,30.50,ESE,113,0.0,0.0,81,0.00,,,0.00,WUHU216HW,2013-01-08 14:07:00,
2013-01-08 09:12:00,30.9,25.5,30.50,ESE,113,0.0,0.0,80,0.00,,,0.00,WUHU216HW,2013-01-08 14:12:00,
2013-01-08 09:17:00,31.2,25.8,30.50,ESE,113,0.0,0.0,80,0.00,,,0.00,WUHU216HW,2013-01-08 14:17:00,
2013-01-08 09:22:00,31.6,26.2,30.50,ESE,113,0.0,0.0,80,0.00,,,0.00,WUHU216HW,2013-01-08 14:22:00,
2013-01-08 09:27:00,31.8,26.4,30.50,ESE,113,0.0,0.0,80,0.00,,,0.00,WUHU216HW,2013-01-08 14:27:00,
2013-01-08 09:32:00,32.1,26.7,30.51,ESE,113,0.0,0.0,80,0.00,,,0.00,WUHU216HW,2013-01-08 14:32:00,
2013-01-08 09:37:00,32.3,26.6,30.51,ESE,113,0.0,0.0,79,0.00,,,0.00,WUHU216HW,2013-01-08 14:37:00,
2013-01-08 09:42:00,32.5,26.7,30.51,ESE,113,0.0,0.0,79,0.00,,,0.00,WUHU216HW,2013-01-08 14:42:00,
2013-01-08 09:47:00,32.7,26.9,30.51,ESE,113,0.0,0.0,79,0.00,,,0.00,WUHU216HW,2013-01-08 14:47:00,
2013-01-08 09:52:00,32.7,26.9,30.52,ESE,113,0.0,0.0,79,0.00,,,0.00,WUHU216HW,2013-01-08 14:52:00,
2013-01-08 09:57:00,33.0,27.2,30.52,ESE,113,0.0,0.0,79,0.00,,,0.00,WUHU216HW,2013-01-08 14:57:00,
2013-01-08 10:02:00,33.4,27.5,30.52,ESE,113,0.0,0.0,79,0.00,,,0.00,WUHU216HW,2013-01-08 15:02:00,
2013-01-08 10:07:00,33.6,27.7,30.52,ESE,113,0.0,0.0,79,0.00,,,0.00,WUHU216HW,2013-01-08 15:07:00,
2013-01-08 10:12:00,33.9,27.7,30.52,ESE,113,0.0,0.0,78,0.00,,,0.00,WUHU216HW,2013-01-08 15:12:00,
2013-01-08 10:17:00,34.3,28.1,30.51,ESE,113,0.0,0.0,78,0.00,,,0.00,WUHU216HW,2013-01-08 15:17:00,
2013-01-08 10:22:00,34.3,28.1,30.51,ESE,113,0.0,0.0,78,0.00,,,0.00,WUHU216HW,2013-01-08 15:22:00,
2013-01-08 10:27:00,34.8,28.6,30.52,ESE,113,0.0,0.0,78,0.00,,,0.00,WUHU216HW,2013-01-08 15:27:00,
2013-01-08 10:32:00,35.2,28.6,30.52,ESE,113,0.0,0.0,77,0.00,,,0.00,WUHU216HW,2013-01-08 15:32:00,
2013-01-08 10:37:00,35.4,28.8,30.51,ESE,113,0.0,0.0,77,0.00,,,0.00,WUHU216HW,2013-01-08 15:37:00,
2013-01-08 10:42:00,35.7,29.2,30.51,ESE,113,0.0,0.0,77,0.00,,,0.00,WUHU216HW,2013-01-08 15:42:00,
2013-01-08 10:47:00,36.1,29.5,30.51,ESE,113,0.0,0.0,77,0.00,,,0.00,WUHU216HW,2013-01-08 15:47:00,
2013-01-08 10:52:00,36.5,29.6,30.50,ESE,113,0.0,0.0,76,0.00,,,0.00,WUHU216HW,2013-01-08 15:52:00,
2013-01-08 10:57:00,37.0,30.1,30.50,ESE,113,0.0,0.0,76,0.00,,,0.00,WUHU216HW,2013-01-08 15:57:00,
2013-01-08 11:02:00,37.7,30.8,30.50,ESE,113,0.0,0.0,76,0.00,,,0.00,WUHU216HW,2013-01-08 16:02:00,
2013-01-08 11:07:00,38.1,30.8,30.50,ESE,113,0.0,0.0,75,0.00,,,0.00,WUHU216HW,2013-01-08 16:07:00,
2013-01-08 11:12:00,38.4,31.2,30.50,ESE,113,0.0,0.0,75,0.00,,,0.00,WUHU216HW,2013-01-08 16:12:00,
2013-01-08 11:17:00,39.0,31.3,30.50,ESE,113,0.0,0.0,74,0.00,,,0.00,WUHU216HW,2013-01-08 16:17:00,
2013-01-08 11:22:00,39.5,31.9,30.50,ESE,113,0.0,0.0,74,0.00,,,0.00,WUHU216HW,2013-01-08 16:22:00,
2013-01-08 11:27:00,39.9,31.9,30.49,ESE,113,0.0,0.0,73,0.00,,,0.00,WUHU216HW,2013-01-08 16:27:00,
2013-01-08 11:32:00,40.8,32.7,30.49,ESE,113,0.0,0.0,73,0.00,,,0.00,WUHU216HW,2013-01-08 16:32:00,
2013-01-08 11:37:00,41.3,33.3,30.49,SE,135,0.0,0.0,73,0.00,,,0.00,WUHU216HW,2013-01-08 16:37:00,
2013-01-08 11:42:00,42.0,34.0,30.49,SE,135,0.0,0.0,73,0.00,,,0.00,WUHU216HW,2013-01-08 16:42:00,
2013-01-08 11:47:00,43.1,34.7,30.49,SE,135,0.0,0.0,72,0.00,,,0.00,WUHU216HW,2013-01-08 16:47:00,
2013-01-08 11:52:00,43.7,34.9,30.48,SE,135,0.0,0.0,71,0.00,,,0.00,WUHU216HW,2013-01-08 16:52:00,
2013-01-08 11:57:00,44.4,35.2,30.48,SE,135,0.0,0.0,70,0.00,,,0.00,WUHU216HW,2013-01-08 16:57:00,
2013-01-08 12:02:00,45.3,35.7,30.47,SE,135,0.0,0.0,69,0.00,,,0.00,WUHU216HW,2013-01-08 17:02:00,
2013-01-08 12:07:00,45.6,35.7,30.47,SE,135,0.0,0.0,68,0.00,,,0.00,WUHU216HW,2013-01-08 17:07:00,
2013-01-08 12:12:00,46.2,35.8,30.47,SE,135,0.0,0.0,67,0.00,,,0.00,WUHU216HW,2013-01-08 17:12:00,
2013-01-08 12:17:00,47.1,36.6,30.47,SE,135,0.0,0.0,67,0.00,,,0.00,WUHU216HW,2013-01-08 17:17:00,
2013-01-08 12:22:00,47.4,36.6,30.46,SE,135,0.0,0.0,66,0.00,,,0.00,WUHU216HW,2013-01-08 17:22:00,
2013-01-08 12:27:00,48.0,36.7,30.47,SE,135,0.0,0.0,65,0.00,,,0.00,WUHU216HW,2013-01-08 17:27:00,
2013-01-08 12:32:00,48.2,36.5,30.46,SE,135,0.0,0.0,64,0.00,,,0.00,WUHU216HW,2013-01-08 17:32:00,
2013-01-08 12:37:00,48.5,36.5,30.46,SSE,158,0.0,0.0,63,0.00,,,0.00,WUHU216HW,2013-01-08 17:37:00,
2013-01-08 12:42:00,48.9,36.4,30.46,SSE,158,0.0,0.0,62,0.00,,,0.00,WUHU216HW,2013-01-08 17:42:00,
2013-01-08 12:47:00,49.2,36.4,30.45,SE,135,0.0,0.0,61,0.00,,,0.00,WUHU216HW,2013-01-08 17:47:00,
2013-01-08 12:52:00,49.2,36.4,30.45,SE,135,0.0,0.0,61,0.00,,,0.00,WUHU216HW,2013-01-08 17:52:00,
2013-01-08 12:57:00,49.6,36.7,30.45,SSE,158,0.0,0.0,61,0.00,,,0.00,WUHU216HW,2013-01-08 17:57:00,
2013-01-08 13:02:00,49.8,36.5,30.45,SSE,158,0.0,1.7,60,0.00,,,0.00,WUHU216HW,2013-01-08 18:02:00,
2013-01-08 13:07:00,49.8,36.5,30.44,SSE,158,0.0,1.7,60,0.00,,,0.00,WUHU216HW,2013-01-08 18:07:00,
2013-01-08 13:12:00,50.1,36.8,30.44,SE,135,0.0,0.0,60,0.00,,,0.00,WUHU216HW,2013-01-08 18:12:00,
2013-01-08 13:17:00,50.3,37.0,30.44,SSE,158,0.0,1.1,60,0.00,,,0.00,WUHU216HW,2013-01-08 18:17:00,
2013-01-08 13:22:00,50.5,37.1,30.44,South,180,0.0,1.1,60,0.00,,,0.00,WUHU216HW,2013-01-08 18:22:00,
2013-01-08 13:27:00,50.7,37.3,30.43,East,90,4.0,4.0,60,0.00,,,0.00,WUHU216HW,2013-01-08 18:27:00,
2013-01-08 13:32:00,51.2,37.8,30.43,SSE,158,0.0,4.0,60,0.00,,,0.00,WUHU216HW,2013-01-08 18:32:00,
2013-01-08 13:37:00,51.6,38.1,30.42,SE,135,0.0,4.0,60,0.00,,,0.00,WUHU216HW,2013-01-08 18:37:00,
2013-01-08 13:43:00,51.6,38.1,30.43,SE,135,0.0,0.0,60,0.00,,,0.00,WUHU216HW,2013-01-08 18:43:00,
2013-01-08 13:48:00,51.9,38.0,30.42,SE,135,0.0,0.0,59,0.00,,,0.00,WUHU216HW,2013-01-08 18:48:00,
2013-01-08 13:53:00,52.1,38.1,30.42,SE,135,0.0,0.0,59,0.00,,,0.00,WUHU216HW,2013-01-08 18:53:00,
2013-01-08 13:58:00,52.3,38.3,30.42,SE,135,0.0,0.0,59,0.00,,,0.00,WUHU216HW,2013-01-08 18:58:00,
2013-01-08 14:03:00,52.5,38.5,30.42,SE,135,0.0,7.1,59,0.00,,,0.00,WUHU216HW,2013-01-08 19:03:00,
2013-01-08 14:08:00,52.7,38.7,30.41,SSE,158,0.0,7.1,59,0.00,,,0.00,WUHU216HW,2013-01-08 19:08:00,
2013-01-08 14:13:00,52.7,38.2,30.41,SE,135,0.0,7.1,58,0.00,,,0.00,WUHU216HW,2013-01-08 19:13:00,
2013-01-08 14:18:00,52.7,38.7,30.41,SE,135,0.0,7.1,59,0.00,,,0.00,WUHU216HW,2013-01-08 19:18:00,
2013-01-08 14:23:00,52.5,38.5,30.42,SSE,158,0.0,1.5,59,0.00,,,0.00,WUHU216HW,2013-01-08 19:23:00,
2013-01-08 14:28:00,52.7,38.7,30.41,SE,135,0.0,0.0,59,0.00,,,0.00,WUHU216HW,2013-01-08 19:28:00,
2013-01-08 14:33:00,52.7,38.7,30.41,SE,135,0.0,0.0,59,0.00,,,0.00,WUHU216HW,2013-01-08 19:33:00,
2013-01-08 14:38:00,52.7,39.2,30.41,SE,135,0.0,0.0,60,0.00,,,0.00,WUHU216HW,2013-01-08 19:38:00,
2013-01-08 14:43:00,52.8,38.7,30.41,SSE,158,0.0,0.0,59,0.00,,,0.00,WUHU216HW,2013-01-08 19:43:00,
2013-01-08 14:48:00,52.7,39.2,30.41,SE,135,0.0,0.0,60,0.00,,,0.00,WUHU216HW,2013-01-08 19:48:00,
2013-01-08 14:53:00,52.8,39.3,30.41,SSE,158,0.0,3.5,60,0.00,,,0.00,WUHU216HW,2013-01-08 19:53:00,
2013-01-08 14:58:00,52.7,39.2,30.41,SSE,158,0.0,3.5,60,0.00,,,0.00,WUHU216HW,2013-01-08 19:58:00,
2013-01-08 15:03:00,52.7,39.2,30.41,SSE,158,0.0,0.0,60,0.00,,,0.00,WUHU216HW,2013-01-08 20:03:00,
2013-01-08 15:08:00,52.8,39.3,30.41,SSE,158,0.0,0.0,60,0.00,,,0.00,WUHU216HW,2013-01-08 20:08:00,
2013-01-08 15:13:00,52.8,39.3,30.40,South,180,0.0,0.0,60,0.00,,,0.00,WUHU216HW,2013-01-08 20:13:00,
2013-01-08 15:18:00,52.8,39.3,30.41,SE,135,0.0,0.0,60,0.00,,,0.00,WUHU216HW,2013-01-08 20:18:00,
2013-01-08 15:23:00,52.8,39.3,30.41,SE,135,0.0,0.0,60,0.00,,,0.00,WUHU216HW,2013-01-08 20:23:00,
2013-01-08 15:28:00,52.8,39.3,30.41,SSE,158,0.0,0.0,60,0.00,,,0.00,WUHU216HW,2013-01-08 20:28:00,
2013-01-08 15:33:00,52.8,39.3,30.42,SE,135,0.0,0.0,60,0.00,,,0.00,WUHU216HW,2013-01-08 20:33:00,
2013-01-08 15:38:00,52.8,39.7,30.42,ESE,113,0.0,0.0,61,0.00,,,0.00,WUHU216HW,2013-01-08 20:38:00,
2013-01-08 15:43:00,52.8,39.7,30.42,SSE,158,0.0,0.0,61,0.00,,,0.00,WUHU216HW,2013-01-08 20:43:00,
2013-01-08 15:48:00,52.8,39.7,30.41,SSE,158,0.0,0.0,61,0.00,,,0.00,WUHU216HW,2013-01-08 20:48:00,
2013-01-08 15:53:00,52.8,39.7,30.42,SSE,158,0.0,0.0,61,0.00,,,0.00,WUHU216HW,2013-01-08 20:53:00,
2013-01-08 15:58:00,52.7,39.5,30.42,SE,135,0.0,0.0,61,0.00,,,0.00,WUHU216HW,2013-01-08 20:58:00,
2013-01-08 16:03:00,52.7,39.5,30.42,South,180,1.3,1.3,61,0.00,,,0.00,WUHU216HW,2013-01-08 21:03:00,
2013-01-08 16:08:00,52.7,40.0,30.42,SE,135,0.0,1.3,62,0.00,,,0.00,WUHU216HW,2013-01-08 21:08:00,
2013-01-08 16:13:00,52.5,39.8,30.42,SE,135,0.0,1.3,62,0.00,,,0.00,WUHU216HW,2013-01-08 21:13:00,
2013-01-08 16:18:00,52.5,39.8,30.42,SSE,158,0.0,0.0,62,0.00,,,0.00,WUHU216HW,2013-01-08 21:18:00,
2013-01-08 16:23:00,52.5,39.8,30.41,ESE,113,0.0,0.0,62,0.00,,,0.00,WUHU216HW,2013-01-08 21:23:00,
2013-01-08 16:28:00,52.5,39.8,30.42,SSE,158,0.0,0.0,62,0.00,,,0.00,WUHU216HW,2013-01-08 21:28:00,
2013-01-08 16:33:00,52.5,40.2,30.41,SSE,158,0.0,0.0,63,0.00,,,0.00,WUHU216HW,2013-01-08 21:33:00,
2013-01-08 16:38:00,52.5,40.2,30.41,SE,135,0.0,0.0,63,0.00,,,0.00,WUHU216HW,2013-01-08 21:38:00,
2013-01-08 16:43:00,52.5,40.2,30.41,SSE,158,4.2,4.2,63,0.00,,,0.00,WUHU216HW,2013-01-08 21:43:00,
2013-01-08 16:48:00,52.5,40.2,30.41,SE,135,0.0,4.2,63,0.00,,,0.00,WUHU216HW,2013-01-08 21:48:00,
2013-01-08 16:53:00,52.5,40.2,30.41,South,180,0.0,4.2,63,0.00,,,0.00,WUHU216HW,2013-01-08 21:53:00,
2013-01-08 16:58:00,52.5,40.2,30.41,SE,135,0.0,0.0,63,0.00,,,0.00,WUHU216HW,2013-01-08 21:58:00,
2013-01-08 17:03:00,52.5,40.2,30.41,SSE,158,0.0,0.0,63,0.00,,,0.00,WUHU216HW,2013-01-08 22:03:00,
2013-01-08 17:08:00,52.3,40.4,30.41,SSE,158,3.1,3.1,64,0.00,,,0.00,WUHU216HW,2013-01-08 22:08:00,
2013-01-08 17:13:00,52.3,40.4,30.41,SSE,158,0.0,3.1,64,0.00,,,0.00,WUHU216HW,2013-01-08 22:13:00,
2013-01-08 17:18:00,52.1,40.7,30.42,SSE,158,0.0,0.0,65,0.00,,,0.00,WUHU216HW,2013-01-08 22:18:00,
2013-01-08 17:23:00,51.9,40.5,30.42,SSE,158,0.0,0.0,65,0.00,,,0.00,WUHU216HW,2013-01-08 22:23:00,
2013-01-08 17:28:00,51.6,40.1,30.42,SSE,158,0.0,0.0,65,0.00,,,0.00,WUHU216HW,2013-01-08 22:28:00,
2013-01-08 17:33:00,51.6,40.1,30.42,SE,135,0.0,0.0,65,0.00,,,0.00,WUHU216HW,2013-01-08 22:33:00,
2013-01-08 17:38:00,51.4,40.4,30.42,SE,135,0.0,0.0,66,0.00,,,0.00,WUHU216HW,2013-01-08 22:38:00,
2013-01-08 17:43:00,51.0,40.0,30.41,SSE,158,0.0,0.0,66,0.00,,,0.00,WUHU216HW,2013-01-08 22:43:00,
2013-01-08 17:48:00,51.0,40.0,30.42,SSE,158,0.0,0.0,66,0.00,,,0.00,WUHU216HW,2013-01-08 22:48:00,
2013-01-08 17:53:00,50.7,39.7,30.41,SE,135,0.0,0.0,66,0.00,,,0.00,WUHU216HW,2013-01-08 22:53:00,
2013-01-08 17:58:00,50.5,39.9,30.41,SSE,158,0.0,0.0,67,0.00,,,0.00,WUHU216HW,2013-01-08 22:58:00,
2013-01-08 18:03:00,50.3,39.7,30.41,SSE,158,0.0,0.0,67,0.00,,,0.00,WUHU216HW,2013-01-08 23:03:00,
2013-01-08 18:08:00,50.1,39.6,30.41,SE,135,0.0,0.0,67,0.00,,,0.00,WUHU216HW,2013-01-08 23:08:00,
2013-01-08 18:13:00,49.8,39.2,30.42,SSE,158,0.0,0.0,67,0.00,,,0.00,WUHU216HW,2013-01-08 23:13:00,
2013-01-08 18:18:00,49.8,39.6,30.42,SE,135,0.0,0.0,68,0.00,,,0.00,WUHU216HW,2013-01-08 23:18:00,
2013-01-08 18:23:00,49.6,39.4,30.42,SE,135,0.0,0.0,68,0.00,,,0.00,WUHU216HW,2013-01-08 23:23:00,
2013-01-08 18:28:00,49.4,39.3,30.43,SE,135,0.0,0.0,68,0.00,,,0.00,WUHU216HW,2013-01-08 23:28:00,
2013-01-08 18:33:00,49.2,39.1,30.43,SSE,158,0.0,0.0,68,0.00,,,0.00,WUHU216HW,2013-01-08 23:33:00,
2013-01-08 18:38:00,49.1,38.9,30.43,SSE,158,0.0,0.0,68,0.00,,,0.00,WUHU216HW,2013-01-08 23:38:00,
2013-01-08 18:43:00,48.9,38.7,30.43,SSE,158,0.0,0.0,68,0.00,,,0.00,WUHU216HW,2013-01-08 23:43:00,
2013-01-08 18:48:00,48.7,38.6,30.43,SSE,158,0.0,0.0,68,0.00,,,0.00,WUHU216HW,2013-01-08 23:48:00,
2013-01-08 18:53:00,48.5,38.8,30.43,SE,135,0.0,0.0,69,0.00,,,0.00,WUHU216HW,2013-01-08 23:53:00,
2013-01-08 18:58:00,48.3,38.6,30.43,SSE,158,0.0,0.0,69,0.00,,,0.00,WUHU216HW,2013-01-08 23:58:00,
2013-01-08 19:03:00,48.3,38.6,30.43,SE,135,0.0,0.0,69,0.00,,,0.00,WUHU216HW,2013-01-09 00:03:00,
2013-01-08 19:08:00,48.2,38.8,30.43,SE,135,0.0,0.0,70,0.00,,,0.00,WUHU216HW,2013-01-09 00:08:00,
2013-01-08 19:13:00,48.0,38.6,30.43,SSE,158,0.0,0.0,70,0.00,,,0.00,WUHU216HW,2013-01-09 00:13:00,
2013-01-08 19:18:00,48.0,38.6,30.43,SSE,158,0.0,0.0,70,0.00,,,0.00,WUHU216HW,2013-01-09 00:18:00,
2013-01-08 19:23:00,48.0,38.6,30.43,SSE,158,0.0,0.0,70,0.00,,,0.00,WUHU216HW,2013-01-09 00:23:00,
2013-01-08 19:28:00,47.8,38.5,30.44,SSE,158,0.0,0.0,70,0.00,,,0.00,WUHU216HW,2013-01-09 00:28:00,
2013-01-08 19:33:00,47.6,38.3,30.44,SSE,158,0.0,0.0,70,0.00,,,0.00,WUHU216HW,2013-01-09 00:33:00,
2013-01-08 19:38:00,47.3,38.0,30.43,SSE,158,0.0,0.0,70,0.00,,,0.00,WUHU216HW,2013-01-09 00:38:00,
2013-01-08 19:43:00,47.1,37.8,30.44,SSE,158,0.0,0.0,70,0.00,,,0.00,WUHU216HW,2013-01-09 00:43:00,
2013-01-08 19:48:00,46.9,37.7,30.44,SSE,158,0.0,0.0,70,0.00,,,0.00,WUHU216HW,2013-01-09 00:48:00,
2013-01-08 19:53:00,46.5,37.3,30.44,SSE,158,0.0,0.0,70,0.00,,,0.00,WUHU216HW,2013-01-09 00:53:00,
2013-01-08 19:58:00,46.2,37.3,30.44,SSE,158,0.0,0.0,71,0.00,,,0.00,WUHU216HW,2013-01-09 00:58:00,
2013-01-08 20:04:00,46.0,37.2,30.45,SSE,158,0.0,0.0,71,0.00,,,0.00,WUHU216HW,2013-01-09 01:04:00,
2013-01-08 20:09:00,46.0,37.2,30.45,SSE,158,0.0,0.0,71,0.00,,,0.00,WUHU216HW,2013-01-09 01:09:00,
2013-01-08 20:14:00,45.6,36.8,30.45,SSE,158,0.0,0.0,71,0.00,,,0.00,WUHU216HW,2013-01-09 01:14:00,
2013-01-08 20:19:00,45.5,37.0,30.45,SSE,158,0.0,0.0,72,0.00,,,0.00,WUHU216HW,2013-01-09 01:19:00,
2013-01-08 20:24:00,45.1,36.6,30.45,SSE,158,0.0,0.0,72,0.00,,,0.00,WUHU216HW,2013-01-09 01:24:00,
2013-01-08 20:29:00,44.9,36.4,30.45,East,90,0.0,0.0,72,0.00,,,0.00,WUHU216HW,2013-01-09 01:29:00,
2013-01-08 20:34:00,44.9,36.8,30.44,SE,135,0.0,0.0,73,0.00,,,0.00,WUHU216HW,2013-01-09 01:34:00,
2013-01-08 20:39:00,44.7,36.6,30.44,SE,135,0.0,0.0,73,0.00,,,0.00,WUHU216HW,2013-01-09 01:39:00,
2013-01-08 20:44:00,44.4,36.2,30.44,SE,135,0.0,0.0,73,0.00,,,0.00,WUHU216HW,2013-01-09 01:44:00,
2013-01-08 20:49:00,44.4,36.6,30.44,SE,135,0.0,0.0,74,0.00,,,0.00,WUHU216HW,2013-01-09 01:49:00,
2013-01-08 20:54:00,44.4,36.6,30.43,SE,135,0.0,0.0,74,0.00,,,0.00,WUHU216HW,2013-01-09 01:54:00,
2013-01-08 20:59:00,44.0,36.2,30.44,SE,135,0.0,0.0,74,0.00,,,0.00,WUHU216HW,2013-01-09 01:59:00,
2013-01-08 21:04:00,43.7,35.9,30.45,SE,135,0.0,0.0,74,0.00,,,0.00,WUHU216HW,2013-01-09 02:04:00,
2013-01-08 21:09:00,43.1,35.4,30.45,SE,135,0.0,0.0,74,0.00,,,0.00,WUHU216HW,2013-01-09 02:09:00,
2013-01-08 21:14:00,42.9,35.5,30.45,SE,135,0.0,0.0,75,0.00,,,0.00,WUHU216HW,2013-01-09 02:14:00,
2013-01-08 21:19:00,42.6,35.2,30.45,SE,135,0.0,0.0,75,0.00,,,0.00,WUHU216HW,2013-01-09 02:19:00,
2013-01-08 21:24:00,42.6,35.2,30.45,SE,135,0.0,0.0,75,0.00,,,0.00,WUHU216HW,2013-01-09 02:24:00,
2013-01-08 21:29:00,42.4,35.0,30.45,SE,135,0.0,0.0,75,0.00,,,0.00,WUHU216HW,2013-01-09 02:29:00,
2013-01-08 21:34:00,42.2,34.8,30.44,SE,135,0.0,0.0,75,0.00,,,0.00,WUHU216HW,2013-01-09 02:34:00,
2013-01-08 21:39:00,41.9,34.7,30.45,SE,135,0.0,0.0,75,0.00,,,0.00,WUHU216HW,2013-01-09 02:39:00,
2013-01-08 21:44:00,41.7,34.3,30.45,SE,135,0.0,0.0,75,0.00,,,0.00,WUHU216HW,2013-01-09 02:44:00,
2013-01-08 21:49:00,41.5,34.1,30.45,SE,135,0.0,0.0,75,0.00,,,0.00,WUHU216HW,2013-01-09 02:49:00,
2013-01-08 21:54:00,41.3,33.9,30.46,SE,135,0.0,0.0,75,0.00,,,0.00,WUHU216HW,2013-01-09 02:54:00,
2013-01-08 21:59:00,41.1,33.8,30.46,SE,135,0.0,0.0,75,0.00,,,0.00,WUHU216HW,2013-01-09 02:59:00,
2013-01-08 22:04:00,40.8,33.4,30.46,SE,135,0.0,0.0,75,0.00,,,0.00,WUHU216HW,2013-01-09 03:04:00,
2013-01-08 22:09:00,40.8,33.7,30.46,SE,135,0.0,0.0,76,0.00,,,0.00,WUHU216HW,2013-01-09 03:09:00,
2013-01-08 22:14:00,40.8,34.0,30.46,SSE,158,0.0,0.0,77,0.00,,,0.00,WUHU216HW,2013-01-09 03:14:00,
2013-01-08 22:19:00,40.8,34.0,30.46,SE,135,0.0,0.0,77,0.00,,,0.00,WUHU216HW,2013-01-09 03:19:00,
2013-01-08 22:24:00,40.8,34.0,30.45,SE,135,0.0,0.0,77,0.00,,,0.00,WUHU216HW,2013-01-09 03:24:00,
2013-01-08 22:29:00,40.8,34.0,30.45,SE,135,0.0,0.0,77,0.00,,,0.00,WUHU216HW,2013-01-09 03:29:00,
2013-01-08 22:34:00,40.8,34.0,30.46,SSE,158,0.0,0.0,77,0.00,,,0.00,WUHU216HW,2013-01-09 03:34:00,
2013-01-08 22:39:00,40.6,33.9,30.46,SE,135,0.0,0.0,77,0.00,,,0.00,WUHU216HW,2013-01-09 03:39:00,
2013-01-08 22:44:00,40.6,33.9,30.46,SE,135,0.0,0.0,77,0.00,,,0.00,WUHU216HW,2013-01-09 03:44:00,
2013-01-08 22:49:00,40.6,33.9,30.46,SE,135,0.0,0.0,77,0.00,,,0.00,WUHU216HW,2013-01-09 03:49:00,
2013-01-08 22:54:00,40.6,33.7,30.46,SE,135,0.0,0.0,77,0.00,,,0.00,WUHU216HW,2013-01-09 03:54:00,
2013-01-08 22:59:00,40.4,33.7,30.46,SE,135,0.0,0.0,77,0.00,,,0.00,WUHU216HW,2013-01-09 03:59:00,
2013-01-08 23:04:00,40.2,33.5,30.47,SE,135,0.0,0.0,77,0.00,,,0.00,WUHU216HW,2013-01-09 04:04:00,
2013-01-08 23:09:00,40.1,33.7,30.47,SE,135,0.0,0.0,78,0.00,,,0.00,WUHU216HW,2013-01-09 04:09:00,
2013-01-08 23:14:00,39.9,33.5,30.47,SE,135,0.0,0.0,78,0.00,,,0.00,WUHU216HW,2013-01-09 04:14:00,
2013-01-08 23:19:00,39.9,33.5,30.47,SE,135,0.0,0.0,78,0.00,,,0.00,WUHU216HW,2013-01-09 04:19:00,
2013-01-08 23:24:00,39.7,33.4,30.47,SE,135,0.0,0.0,78,0.00,,,0.00,WUHU216HW,2013-01-09 04:24:00,
2013-01-08 23:29:00,39.7,33.4,30.46,SE,135,0.0,0.0,78,0.00,,,0.00,WUHU216HW,2013-01-09 04:29:00,
2013-01-08 23:34:00,39.5,33.2,30.46,SE,135,0.0,0.0,78,0.00,,,0.00,WUHU216HW,2013-01-09 04:34:00,
2013-01-08 23:39:00,39.3,33.0,30.46,SE,135,0.0,0.0,78,0.00,,,0.00,WUHU216HW,2013-01-09 04:39:00,
2013-01-08 23:44:00,39.3,33.0,30.46,SE,135,0.0,0.0,78,0.00,,,0.00,WUHU216HW,2013-01-09 04:44:00,
2013-01-08 23:49:00,39.3,33.4,30.46,SE,135,0.0,0.0,79,0.00,,,0.00,WUHU216HW,2013-01-09 04:49:00,
2013-01-08 23:54:00,39.2,33.2,30.45,SE,135,0.0,0.0,79,0.00,,,0.00,WUHU216HW,2013-01-09 04:54:00,
2013-01-08 23:59:00,39.0,33.0,30.45,SE,135,0.0,0.0,79,0.00,,,0.00,WUHU216HW,2013-01-09 04:59:00,